Time;durP1;ratioP1;P1;durP2;ratioP2;P2;SDS_P1;SDS_P2;PMS_P1;PMS_P2;Temp;Humidity;BMP_temperature;BMP_pressure;BME280_temperature;BME280_humidity;BME280_pressure;Samples;Min_cycle;Max_cycle;Signal;HPM_P1;HPM_P2
2023/05/13 00:02:01;;;;;;;3.08;2.08;;;;;;;11.41;75.26;96671.13;4937947;29;20058;-82
2023/05/13 00:04:28;;;;;;;3.20;2.70;;;;;;;11.42;75.47;96670.97;4937767;29;20060;-81
2023/05/13 00:06:57;;;;;;;2.53;2.33;;;;;;;11.42;75.03;96667.56;4949598;29;20111;-80
2023/05/13 00:09:25;;;;;;;2.75;2.55;;;;;;;11.41;76.05;96669.34;4957215;29;20082;-82
2023/05/13 00:11:52;;;;;;;2.20;2.00;;;;;;;11.44;77.51;96673.41;4958003;29;20051;-81
2023/05/13 00:14:20;;;;;;;2.20;2.00;;;;;;;11.48;77.75;96665.00;4956285;29;20056;-82
2023/05/13 00:16:48;;;;;;;2.33;2.10;;;;;;;11.51;79.12;96663.81;4939821;29;20067;-81
2023/05/13 00:19:17;;;;;;;1.80;1.45;;;;;;;11.52;77.26;96653.19;4939047;29;20047;-81
2023/05/13 00:21:44;;;;;;;2.15;2.00;;;;;;;11.52;75.72;96649.75;4937643;29;20051;-82
2023/05/13 00:24:13;;;;;;;2.47;1.80;;;;;;;11.52;77.58;96668.03;4937256;29;20419;-81
2023/05/13 00:26:41;;;;;;;2.00;1.90;;;;;;;11.57;79.60;96649.19;4936908;29;20044;-81
2023/05/13 00:29:08;;;;;;;2.50;2.17;;;;;;;11.57;78.53;96652.63;4937222;29;20051;-81
2023/05/13 00:31:36;;;;;;;2.88;2.67;;;;;;;11.60;80.56;96647.03;4936967;29;20051;-81
2023/05/13 00:34:04;;;;;;;1.92;1.83;;;;;;;11.63;81.51;96651.06;4936764;29;20499;-82
2023/05/13 00:36:32;;;;;;;2.60;2.40;;;;;;;11.62;79.61;96660.72;4937045;29;20522;-82
2023/05/13 00:38:59;;;;;;;2.58;2.33;;;;;;;11.58;80.41;96658.66;4936741;29;20058;-81
2023/05/13 00:41:28;;;;;;;3.20;2.90;;;;;;;11.58;79.80;96658.66;4936570;29;20142;-81
2023/05/13 00:43:56;;;;;;;3.80;3.15;;;;;;;11.55;81.08;96660.66;4936582;29;20051;-81
2023/05/13 00:46:24;;;;;;;2.72;2.53;;;;;;;11.52;80.93;96666.25;4936951;29;20054;-81
2023/05/13 00:48:52;;;;;;;2.78;2.58;;;;;;;11.50;82.04;96662.19;4937259;29;20415;-82
2023/05/13 00:51:20;;;;;;;5.35;3.63;;;;;;;11.48;80.86;96664.19;4936451;29;20054;-81
2023/05/13 00:53:48;;;;;;;3.35;2.92;;;;;;;11.43;80.44;96666.53;4936242;29;20044;-81
2023/05/13 00:56:18;;;;;;;6.40;3.90;;;;;;;11.35;78.78;96664.88;4936593;29;20051;-81
2023/05/13 00:58:47;;;;;;;4.30;3.20;;;;;;;11.31;78.77;96666.22;4936411;29;20047;-81
2023/05/13 01:01:25;;;;;;;13.10;3.13;;;;;;;11.22;77.79;96665.53;4935745;29;20512;-81
2023/05/13 01:04:00;;;;;;;3.33;2.83;;;;;;;11.16;78.39;96665.47;4935530;29;20132;-81
2023/05/13 01:06:36;;;;;;;3.65;3.08;;;;;;;11.18;77.46;96673.91;4935932;29;20054;-81
2023/05/13 01:09:15;;;;;;;4.03;2.60;;;;;;;11.18;77.50;96664.28;4936193;29;20052;-81
2023/05/13 01:11:44;;;;;;;3.20;2.50;;;;;;;11.16;76.84;96666.25;4936091;29;20054;-81
2023/05/13 01:14:16;;;;;;;3.42;2.70;;;;;;;11.17;79.74;96672.28;4935350;29;20059;-82
2023/05/13 01:16:49;;;;;;;;;;;;;;;11.26;81.18;96671.19;4936352;29;20078;-80
2023/05/13 01:19:27;;;;;;;3.80;2.53;;;;;;;11.25;79.84;96672.97;4936134;29;19922;-81
2023/05/13 01:21:56;;;;;;;2.30;2.13;;;;;;;11.25;77.82;96669.56;4935232;29;20058;-82
2023/05/13 01:24:23;;;;;;;3.55;2.47;;;;;;;11.16;76.59;96665.47;4935441;29;20056;-81
2023/05/13 01:26:51;;;;;;;5.70;2.75;;;;;;;11.03;76.10;96666.91;4935733;29;20044;-81
2023/05/13 01:29:19;;;;;;;4.55;2.55;;;;;;;10.91;75.93;96666.56;4935470;29;20405;-81
2023/05/13 01:31:49;;;;;;;3.10;2.80;;;;;;;10.80;76.41;96668.81;4936136;29;20047;-82
2023/05/13 01:34:17;;;;;;;3.83;2.75;;;;;;;10.75;76.21;96679.00;4935141;29;20062;-81
2023/05/13 01:36:45;;;;;;;3.85;3.42;;;;;;;10.69;76.31;96672.69;4935427;29;20062;-81
2023/05/13 01:39:15;;;;;;;3.13;2.78;;;;;;;10.66;76.25;96671.25;4935299;29;20063;-81
2023/05/13 01:41:43;;;;;;;3.85;2.38;;;;;;;10.62;76.39;96670.00;4934964;29;20443;-81
2023/05/13 01:44:11;;;;;;;4.53;3.05;;;;;;;10.58;76.36;96678.38;4935074;29;20052;-81
2023/05/13 01:46:38;;;;;;;3.17;2.60;;;;;;;10.55;76.47;96676.94;4935434;29;20047;-81
2023/05/13 01:49:08;;;;;;;3.63;2.70;;;;;;;10.54;76.21;96666.66;4935403;29;20055;-80
2023/05/13 01:51:36;;;;;;;5.00;3.75;;;;;;;10.53;76.35;96681.50;4935202;29;20051;-82
2023/05/13 01:54:04;;;;;;;7.32;3.67;;;;;;;10.53;76.33;96676.31;4934789;29;20055;-81
2023/05/13 01:56:33;;;;;;;4.28;2.97;;;;;;;10.56;76.80;96685.56;4935339;29;20062;-81
2023/05/13 01:59:00;;;;;;;3.50;3.20;;;;;;;10.54;75.96;96677.94;4935035;29;20052;-81
2023/05/13 02:01:28;;;;;;;4.70;3.00;;;;;;;10.54;76.54;96683.16;4935198;29;20059;-81
2023/05/13 02:03:57;;;;;;;3.20;2.90;;;;;;;10.58;76.67;96686.19;4934894;29;20051;-81
2023/05/13 02:06:25;;;;;;;4.07;3.63;;;;;;;10.58;76.29;96683.59;4934762;29;20081;-81
2023/05/13 02:08:52;;;;;;;4.60;3.70;;;;;;;10.58;76.29;96678.38;4934985;29;20518;-82
2023/05/13 02:11:20;;;;;;;4.30;3.90;;;;;;;10.57;76.29;96684.59;4935021;29;20051;-81
2023/05/13 02:13:49;;;;;;;3.92;3.60;;;;;;;10.56;76.15;96682.94;4934522;29;20047;-81
2023/05/13 02:16:17;;;;;;;5.38;3.53;;;;;;;10.54;75.90;96677.94;4937844;29;20060;-82
2023/05/13 02:18:45;;;;;;;4.20;3.80;;;;;;;10.52;76.23;96675.50;4937484;29;20079;-81
2023/05/13 02:21:13;;;;;;;4.72;4.32;;;;;;;10.51;76.39;96678.28;4937132;29;20130;-81
2023/05/13 02:23:40;;;;;;;4.38;3.97;;;;;;;10.50;76.21;96677.47;4934902;29;20055;-82
2023/05/13 02:26:08;;;;;;;5.10;3.70;;;;;;;10.52;76.14;96679.91;4934977;29;20064;-81
2023/05/13 02:28:36;;;;;;;4.90;3.80;;;;;;;10.52;75.99;96685.94;4934959;29;20088;-81
2023/05/13 02:31:05;;;;;;;4.40;3.50;;;;;;;10.56;76.55;96685.56;4934861;29;20053;-81
2023/05/13 02:33:33;;;;;;;5.05;3.90;;;;;;;10.59;76.01;96686.03;4935696;29;20047;-80
2023/05/13 02:36:00;;;;;;;4.22;3.78;;;;;;;10.57;75.53;96682.78;4938148;29;20423;-81
2023/05/13 02:38:28;;;;;;;3.85;3.50;;;;;;;10.55;75.74;96689.16;4938569;29;20051;-81
2023/05/13 02:40:55;;;;;;;3.92;3.50;;;;;;;10.57;75.53;96687.19;4938424;29;20054;-81
2023/05/13 02:43:23;;;;;;;3.50;3.17;;;;;;;10.59;75.50;96690.44;4938107;29;20054;-80
2023/05/13 02:45:51;;;;;;;3.83;3.47;;;;;;;10.62;76.16;96680.44;4938340;29;20055;-80
2023/05/13 02:48:20;;;;;;;3.95;3.55;;;;;;;10.69;76.26;96690.94;4938082;29;20079;-81
2023/05/13 02:50:47;;;;;;;5.32;3.70;;;;;;;10.71;75.07;96684.59;4939714;29;20048;-81
2023/05/13 02:53:15;;;;;;;4.32;3.13;;;;;;;10.68;74.54;96684.94;4942270;29;20052;-81
2023/05/13 02:55:42;;;;;;;5.13;3.45;;;;;;;10.62;74.39;96683.03;4942274;29;20103;-81
2023/05/13 02:58:10;;;;;;;3.67;3.35;;;;;;;10.60;74.49;96682.41;4938571;29;20054;-81
2023/05/13 03:00:37;;;;;;;3.53;3.22;;;;;;;10.60;74.79;96684.22;4939107;29;20059;-81
2023/05/13 03:03:05;;;;;;;6.43;3.58;;;;;;;10.59;74.64;96680.81;4938293;29;20059;-81
2023/05/13 03:05:34;;;;;;;5.22;3.25;;;;;;;10.58;74.12;96683.59;4937772;29;20059;-81
2023/05/13 03:08:01;;;;;;;3.63;3.33;;;;;;;10.54;74.18;96680.53;4937822;29;20052;-81
2023/05/13 03:10:29;;;;;;;7.32;3.60;;;;;;;10.55;74.14;96673.53;4938195;29;20048;-81
2023/05/13 03:12:56;;;;;;;4.32;3.80;;;;;;;10.57;74.06;96676.75;4937968;29;20127;-81
2023/05/13 03:15:24;;;;;;;3.65;3.35;;;;;;;10.55;73.97;96678.72;4937187;29;20059;-81
2023/05/13 03:17:52;;;;;;;4.22;3.13;;;;;;;10.54;73.88;96677.94;4937903;29;20055;-81
2023/05/13 03:20:19;;;;;;;4.05;3.72;;;;;;;10.55;73.82;96679.53;4937780;29;20310;-81
2023/05/13 03:22:49;;;;;;;5.53;3.70;;;;;;;10.54;73.49;96683.16;4937767;29;20048;-81
2023/05/13 03:25:16;;;;;;;4.05;3.65;;;;;;;10.51;73.66;96673.84;4936987;29;20048;-81
2023/05/13 03:27:44;;;;;;;5.38;3.58;;;;;;;10.50;73.77;96679.28;4937513;29;20055;-81
2023/05/13 03:30:12;;;;;;;4.60;3.60;;;;;;;10.50;73.93;96680.06;4937600;29;20594;-81
2023/05/13 03:32:40;;;;;;;4.68;3.92;;;;;;;10.53;74.18;96678.91;4937467;29;20066;-81
2023/05/13 03:35:08;;;;;;;3.85;3.45;;;;;;;10.55;74.16;96676.94;4937295;29;20471;-81
2023/05/13 03:37:36;;;;;;;4.32;3.45;;;;;;;10.54;73.92;96680.53;4937528;29;20059;-82
2023/05/13 03:40:06;;;;;;;3.75;3.30;;;;;;;10.51;73.95;96684.28;4937081;29;20052;-81
2023/05/13 03:42:34;;;;;;;5.22;3.33;;;;;;;10.49;74.01;96682.84;4936847;29;20515;-80
2023/05/13 03:45:01;;;;;;;4.82;3.40;;;;;;;10.46;74.18;96691.84;4936649;29;20051;-81
2023/05/13 03:47:29;;;;;;;4.28;3.88;;;;;;;10.45;74.51;96698.06;4937156;29;20055;-81
2023/05/13 03:49:56;;;;;;;3.53;3.22;;;;;;;10.49;74.68;96701.13;4937244;29;20083;-81
2023/05/13 03:52:24;;;;;;;4.05;3.58;;;;;;;10.48;74.22;96696.91;4937039;29;20056;-81
2023/05/13 03:54:52;;;;;;;3.92;3.63;;;;;;;10.46;74.38;96701.47;4937382;29;20062;-81
2023/05/13 03:57:21;;;;;;;4.55;4.15;;;;;;;10.46;74.31;96701.47;4937439;29;20138;-81
2023/05/13 03:59:48;;;;;;;4.07;3.78;;;;;;;10.45;74.62;96700.69;4937144;29;20055;-81
2023/05/13 04:02:17;;;;;;;4.07;3.38;;;;;;;10.46;74.46;96698.88;4937364;29;20051;-81
2023/05/13 04:04:45;;;;;;;6.75;4.22;;;;;;;10.47;74.47;96705.69;4937003;29;20077;-82
2023/05/13 04:07:12;;;;;;;4.13;3.72;;;;;;;10.48;74.63;96704.72;4939311;29;20059;-81
2023/05/13 04:09:40;;;;;;;4.13;3.72;;;;;;;10.52;74.50;96712.00;4936833;29;20055;-82
2023/05/13 04:12:07;;;;;;;6.05;3.40;;;;;;;10.54;74.28;96701.41;4944328;29;20092;-82
2023/05/13 04:14:37;;;;;;;4.07;3.58;;;;;;;10.57;74.16;96706.25;4954043;23;20051;-77
2023/05/13 04:17:05;;;;;;;4.55;4.15;;;;;;;10.56;74.20;96709.88;4921112;29;20051;-75
2023/05/13 04:19:32;;;;;;;4.00;3.60;;;;;;;10.57;74.41;96708.88;4929331;29;20048;-76
2023/05/13 04:22:00;;;;;;;4.13;3.70;;;;;;;10.59;74.69;96709.50;4917071;29;20047;-75
2023/05/13 04:24:27;;;;;;;12.85;4.40;;;;;;;10.65;74.94;96715.81;4909156;29;20502;-76
2023/05/13 04:26:55;;;;;;;3.78;3.47;;;;;;;10.70;75.32;96718.69;4898581;29;20056;-76
2023/05/13 04:29:22;;;;;;;5.32;3.40;;;;;;;10.75;75.85;96715.53;4898268;29;20051;-75
2023/05/13 04:31:51;;;;;;;6.72;3.97;;;;;;;10.79;75.56;96719.41;4900544;29;20060;-79
2023/05/13 04:34:19;;;;;;;5.22;4.30;;;;;;;10.78;74.46;96721.22;4917186;29;20058;-77
2023/05/13 04:36:47;;;;;;;4.57;4.18;;;;;;;10.76;74.53;96727.56;4916813;29;20139;-77
2023/05/13 04:39:15;;;;;;;4.03;3.72;;;;;;;10.75;74.45;96721.56;4917057;29;20059;-77
2023/05/13 04:41:42;;;;;;;4.13;3.72;;;;;;;10.79;75.49;96722.00;4917375;29;20059;-77
2023/05/13 04:44:10;;;;;;;4.07;3.78;;;;;;;10.82;75.51;96722.47;4916825;29;20048;-77
2023/05/13 04:46:39;;;;;;;5.85;4.43;;;;;;;10.84;75.47;96727.50;4916738;29;20059;-77
2023/05/13 04:49:08;;;;;;;4.45;4.05;;;;;;;10.87;75.35;96730.56;4916443;29;20075;-76
2023/05/13 04:51:36;;;;;;;3.90;3.60;;;;;;;10.90;76.89;96726.78;4916958;29;20420;-77
2023/05/13 04:54:04;;;;;;;7.28;3.85;;;;;;;10.96;77.40;96728.66;4917291;29;20112;-77
2023/05/13 04:56:32;;;;;;;4.18;3.80;;;;;;;11.00;78.96;96729.94;4916398;29;20052;-77
2023/05/13 04:58:59;;;;;;;3.97;3.50;;;;;;;11.03;78.09;96729.56;4916576;29;20531;-77
2023/05/13 05:01:27;;;;;;;4.40;4.00;;;;;;;11.05;77.73;96738.03;4916766;29;20047;-78
2023/05/13 05:03:54;;;;;;;4.63;4.20;;;;;;;11.03;75.93;96726.94;4911879;29;20055;-77
2023/05/13 05:06:23;;;;;;;4.32;3.92;;;;;;;11.01;75.05;96731.53;4899210;29;20056;-77
2023/05/13 05:08:51;;;;;;;5.90;4.22;;;;;;;11.03;76.76;96734.78;4897781;29;20056;-77
2023/05/13 05:11:19;;;;;;;4.68;4.07;;;;;;;11.06;77.78;96733.59;4898021;29;20061;-77
2023/05/13 05:13:46;;;;;;;4.20;3.80;;;;;;;11.08;77.89;96742.88;4909501;29;20443;-76
2023/05/13 05:16:14;;;;;;;4.43;4.03;;;;;;;11.08;77.50;96745.47;4915093;29;20060;-77
2023/05/13 05:18:42;;;;;;;3.97;3.67;;;;;;;11.11;78.43;96749.56;4910917;29;20056;-77
2023/05/13 05:21:10;;;;;;;4.53;4.13;;;;;;;11.11;77.83;96747.75;4916697;29;20052;-76
2023/05/13 05:23:39;;;;;;;6.22;4.32;;;;;;;11.15;78.10;96753.44;4916089;29;20056;-76
2023/05/13 05:26:06;;;;;;;4.40;4.00;;;;;;;11.19;77.96;96753.84;4917733;29;20398;-78
2023/05/13 05:28:39;;;;;;;4.55;3.80;;;;;;;11.16;75.71;96755.03;4930588;29;20056;-78
2023/05/13 05:31:06;;;;;;;5.15;4.15;;;;;;;11.11;75.10;96752.97;4930364;29;20048;-77
2023/05/13 05:33:34;;;;;;;4.25;3.85;;;;;;;11.13;76.61;96756.22;4918764;29;20575;-78
2023/05/13 05:36:02;;;;;;;5.53;4.03;;;;;;;11.19;78.32;96759.88;4916447;29;20060;-78
2023/05/13 05:38:29;;;;;;;4.50;3.85;;;;;;;11.25;78.67;96753.94;4901251;29;20140;-78
2023/05/13 05:40:58;;;;;;;6.53;4.38;;;;;;;11.28;76.25;96765.81;4915744;29;20056;-78
2023/05/13 05:43:26;;;;;;;4.22;3.83;;;;;;;11.28;76.84;96763.19;4904014;29;20060;-77
2023/05/13 05:45:54;;;;;;;4.90;4.38;;;;;;;11.33;78.04;96766.09;4913294;29;20127;-78
2023/05/13 05:48:21;;;;;;;5.15;3.85;;;;;;;11.38;78.02;96768.16;4911332;29;20056;-78
2023/05/13 05:50:49;;;;;;;4.47;4.07;;;;;;;11.39;76.54;96770.59;4917171;29;20096;-79
2023/05/13 05:53:17;;;;;;;5.38;4.45;;;;;;;11.37;75.53;96763.91;4901426;29;20498;-78
2023/05/13 05:55:44;;;;;;;4.40;4.00;;;;;;;11.37;75.31;96767.34;4897933;29;20501;-78
2023/05/13 05:58:16;;;;;;;4.85;3.90;;;;;;;11.39;74.35;96767.97;4913415;29;20055;-79
2023/05/13 06:00:43;;;;;;;5.13;3.97;;;;;;;11.38;73.84;96774.19;4901034;29;20611;-80
2023/05/13 06:03:11;;;;;;;5.53;3.60;;;;;;;11.35;74.13;96774.56;4900656;29;20127;-80
2023/05/13 06:05:39;;;;;;;3.72;3.42;;;;;;;11.38;76.24;96771.56;4916308;29;20131;-79
2023/05/13 06:08:07;;;;;;;4.78;3.50;;;;;;;11.38;74.17;96776.78;4918609;29;20055;-79
2023/05/13 06:10:34;;;;;;;3.75;3.35;;;;;;;11.32;73.56;96773.09;4920209;29;20052;-79
2023/05/13 06:13:02;;;;;;;3.60;3.30;;;;;;;11.33;75.05;96772.13;4919816;29;20055;-79
2023/05/13 06:15:31;;;;;;;3.90;3.50;;;;;;;11.36;74.44;96775.38;4915252;29;20049;-79
2023/05/13 06:17:59;;;;;;;4.53;4.13;;;;;;;11.37;74.23;96769.97;4900940;29;20052;-79
2023/05/13 06:20:26;;;;;;;4.13;3.72;;;;;;;11.37;73.47;96772.56;4904624;29;20072;-81
2023/05/13 06:22:54;;;;;;;3.38;3.03;;;;;;;11.39;72.81;96780.22;4919031;29;20056;-79
2023/05/13 06:25:21;;;;;;;3.58;3.28;;;;;;;11.35;73.00;96787.63;4904019;29;20420;-79
2023/05/13 06:27:49;;;;;;;4.68;3.88;;;;;;;11.37;73.29;96784.81;4907287;29;20084;-79
2023/05/13 06:30:16;;;;;;;4.82;3.35;;;;;;;11.42;75.50;96779.88;4916000;29;20428;-79
2023/05/13 06:32:45;;;;;;;3.70;3.40;;;;;;;11.47;74.19;96783.53;4898694;29;20132;-78
2023/05/13 06:35:27;;;;;;;3.70;3.25;;;;;;;11.49;74.80;96781.56;4913195;29;20135;-79
2023/05/13 06:37:55;;;;;;;4.72;4.32;;;;;;;11.54;74.25;96783.59;4908109;29;20057;-78
2023/05/13 06:40:22;;;;;;;5.38;3.80;;;;;;;11.55;73.60;96775.59;4898494;29;20063;-79
2023/05/13 06:42:50;;;;;;;4.65;3.50;;;;;;;11.57;73.07;96778.03;4898727;29;20060;-78
2023/05/13 06:45:21;;;;;;;5.82;4.10;;;;;;;11.55;72.65;96774.78;4900500;29;20052;-80
2023/05/13 06:47:52;;;;;;;4.07;3.40;;;;;;;11.54;72.47;96784.44;4910743;29;20143;-79
2023/05/13 06:50:20;;;;;;;3.70;3.40;;;;;;;11.58;72.22;96778.84;4900343;29;20056;-79
2023/05/13 06:52:48;;;;;;;4.75;3.28;;;;;;;11.57;71.73;96780.66;4900075;29;20057;-79
2023/05/13 06:55:17;;;;;;;3.55;3.25;;;;;;;11.56;71.57;96776.41;4899911;29;20048;-79
2023/05/13 06:57:46;;;;;;;3.90;3.60;;;;;;;11.55;71.64;96791.28;4907220;29;20044;-78
2023/05/13 07:00:14;;;;;;;3.78;3.38;;;;;;;11.55;71.76;96795.69;4916657;29;20059;-79
2023/05/13 07:02:42;;;;;;;3.78;3.22;;;;;;;11.54;71.42;96794.91;4900592;29;20084;-79
2023/05/13 07:05:12;;;;;;;3.90;3.47;;;;;;;11.54;71.63;96786.22;4918588;29;20048;-79
2023/05/13 07:07:39;;;;;;;3.90;3.42;;;;;;;11.58;71.24;96789.28;4912088;29;20424;-79
2023/05/13 07:10:07;;;;;;;3.33;3.03;;;;;;;11.57;71.07;96788.50;4899799;29;20055;-78
2023/05/13 07:12:35;;;;;;;3.63;3.30;;;;;;;11.55;71.07;96788.66;4899715;29;20059;-78
2023/05/13 07:15:03;;;;;;;4.45;3.35;;;;;;;11.55;71.08;96791.28;4917386;29;20532;-78
2023/05/13 07:17:30;;;;;;;3.92;3.47;;;;;;;11.55;71.28;96783.44;4916569;29;20058;-79
2023/05/13 07:19:58;;;;;;;3.50;2.75;;;;;;;11.56;71.43;96789.47;4918520;29;20058;-78
2023/05/13 07:22:27;;;;;;;4.80;3.30;;;;;;;11.58;71.29;96794.50;4918568;29;20052;-79
2023/05/13 07:24:55;;;;;;;3.55;3.25;;;;;;;11.59;71.39;96790.91;4918657;29;20051;-77
2023/05/13 07:27:23;;;;;;;3.50;3.20;;;;;;;11.59;71.45;96796.13;4917861;29;20239;-78
2023/05/13 07:29:51;;;;;;;4.78;3.58;;;;;;;11.62;71.57;96793.16;4917234;29;20051;-77
2023/05/13 07:32:18;;;;;;;3.58;3.28;;;;;;;11.64;71.24;96805.03;4916622;29;20055;-78
2023/05/13 07:34:46;;;;;;;4.10;2.90;;;;;;;11.66;71.28;96802.25;4902611;29;20059;-78
2023/05/13 07:37:13;;;;;;;3.60;3.30;;;;;;;11.64;70.68;96793.78;4916889;29;20140;-78
2023/05/13 07:39:42;;;;;;;3.25;2.97;;;;;;;11.63;70.89;96802.59;4916979;29;20066;-77
2023/05/13 07:42:10;;;;;;;11.60;3.03;;;;;;;11.65;71.10;96800.63;4917075;29;20052;-77
2023/05/13 07:44:39;;;;;;;3.35;3.05;;;;;;;11.65;70.82;96804.03;4916821;29;20044;-77
2023/05/13 07:47:06;;;;;;;5.28;2.63;;;;;;;11.65;70.55;96796.19;4916220;29;20079;-77
2023/05/13 07:49:34;;;;;;;2.90;2.70;;;;;;;11.67;70.59;96798.63;4918107;29;20095;-77
2023/05/13 07:52:02;;;;;;;3.38;3.00;;;;;;;11.67;70.75;96799.44;4918008;29;20050;-79
2023/05/13 07:54:29;;;;;;;4.30;2.47;;;;;;;11.70;70.49;96798.28;4902423;29;20066;-78
2023/05/13 07:56:58;;;;;;;3.95;3.25;;;;;;;11.73;70.75;96803.13;4918933;29;20052;-78
2023/05/13 07:59:25;;;;;;;5.85;3.03;;;;;;;11.77;71.17;96807.00;4912353;29;20060;-78
2023/05/13 08:01:53;;;;;;;4.75;4.05;;;;;;;11.80;71.24;96796.16;4922745;29;20048;-78
2023/05/13 08:04:20;;;;;;;3.85;3.53;;;;;;;11.82;70.91;96799.41;4927023;29;20071;-78
2023/05/13 08:06:48;;;;;;;3.58;3.28;;;;;;;11.85;71.20;96801.66;4905320;29;20071;-77
2023/05/13 08:09:16;;;;;;;2.92;2.72;;;;;;;11.88;70.68;96797.91;4899692;29;20057;-77
2023/05/13 08:11:44;;;;;;;3.35;3.05;;;;;;;11.90;70.23;96806.38;4899216;29;20049;-76
2023/05/13 08:14:12;;;;;;;3.10;2.90;;;;;;;11.89;70.51;96802.94;4912840;29;20063;-77
2023/05/13 08:16:40;;;;;;;3.35;3.03;;;;;;;11.91;70.35;96810.59;4905385;29;20052;-77
2023/05/13 08:19:08;;;;;;;2.50;2.17;;;;;;;11.91;70.44;96808.78;4898841;29;20440;-77
2023/05/13 08:21:35;;;;;;;3.17;2.95;;;;;;;11.91;69.97;96806.16;4900300;29;20044;-78
2023/05/13 08:24:03;;;;;;;4.00;2.85;;;;;;;11.93;70.10;96808.59;4918005;29;20417;-77
2023/05/13 08:26:30;;;;;;;4.35;3.30;;;;;;;11.94;70.36;96805.81;4918074;29;20063;-78
2023/05/13 08:28:58;;;;;;;3.33;3.05;;;;;;;11.98;70.34;96810.66;4915603;29;20421;-78
2023/05/13 08:31:27;;;;;;;7.60;5.05;;;;;;;11.98;70.35;96811.47;4919661;29;20052;-77
2023/05/13 08:33:55;;;;;;;4.93;3.97;;;;;;;11.99;70.57;96807.06;4906606;29;20059;-78
2023/05/13 08:36:24;;;;;;;3.20;2.90;;;;;;;12.03;70.29;96816.16;4910756;29;20055;-77
2023/05/13 08:38:52;;;;;;;3.08;2.80;;;;;;;12.04;69.82;96808.13;4917860;29;20469;-77
2023/05/13 08:41:21;;;;;;;4.10;2.88;;;;;;;12.05;69.52;96808.94;4904939;29;20202;-77
2023/05/13 08:43:49;;;;;;;3.00;2.80;;;;;;;12.03;69.43;96808.31;4911346;29;20123;-77
2023/05/13 08:46:19;;;;;;;3.50;2.95;;;;;;;12.04;69.63;96815.16;4915348;29;20051;-78
2023/05/13 08:48:48;;;;;;;3.55;3.35;;;;;;;12.02;69.71;96812.72;4916951;29;20499;-77
2023/05/13 08:51:16;;;;;;;6.30;3.45;;;;;;;12.01;70.12;96815.53;4916960;29;20587;-77
2023/05/13 08:53:46;;;;;;;5.20;3.15;;;;;;;12.02;70.29;96811.91;4912305;29;20420;-77
2023/05/13 08:56:13;;;;;;;5.80;3.42;;;;;;;12.04;70.54;96815.97;4917472;29;20059;-77
2023/05/13 08:58:41;;;;;;;4.65;3.78;;;;;;;12.08;70.89;96819.03;4915617;29;20059;-77
2023/05/13 09:01:09;;;;;;;3.40;3.10;;;;;;;12.14;72.44;96821.69;4912409;29;20096;-78
2023/05/13 09:03:47;;;;;;;5.00;3.85;;;;;;;12.24;71.47;96828.44;4920614;29;20048;-77
2023/05/13 09:06:16;;;;;;;4.82;4.38;;;;;;;12.26;70.96;96829.84;4907032;29;20143;-77
2023/05/13 09:08:44;;;;;;;4.65;4.15;;;;;;;12.28;71.01;96827.06;4906811;29;20655;-77
2023/05/13 09:11:12;;;;;;;3.92;3.63;;;;;;;12.29;71.28;96824.28;4907187;29;20045;-78
2023/05/13 09:13:39;;;;;;;4.20;3.85;;;;;;;12.31;71.31;96827.50;4918507;29;20078;-78
2023/05/13 09:16:07;;;;;;;4.82;3.90;;;;;;;12.34;71.36;96826.31;4910826;29;20048;-77
2023/05/13 09:18:35;;;;;;;4.65;4.20;;;;;;;12.37;71.62;96825.94;4897789;29;20063;-77
2023/05/13 09:21:26;;;;;;;4.78;3.88;;;;;;;12.40;71.08;96819.50;4897805;29;20428;-77
2023/05/13 09:24:05;;;;;;;4.85;3.42;;;;;;;12.40;71.48;96822.13;4915966;29;20055;-75
2023/05/13 09:26:36;;;;;;;5.15;4.65;;;;;;;12.42;71.41;96812.28;4898938;29;20502;-75
2023/05/13 09:29:18;;;;;;;4.93;4.47;;;;;;;12.46;72.17;96824.84;4916758;29;20052;-75
2023/05/13 09:31:47;;;;;;;6.63;4.72;;;;;;;12.46;71.97;96818.78;4906815;29;20146;-78
2023/05/13 09:34:15;;;;;;;4.43;3.95;;;;;;;12.48;71.78;96822.00;4917708;29;20091;-78
2023/05/13 09:36:44;;;;;;;4.03;3.65;;;;;;;12.48;71.81;96828.03;4919423;29;20119;-78
2023/05/13 09:39:12;;;;;;;5.43;3.70;;;;;;;12.48;71.27;96822.81;4919873;29;20056;-78
2023/05/13 09:41:40;;;;;;;3.70;2.90;;;;;;;12.48;70.65;96822.00;4918940;29;20072;-77
2023/05/13 09:44:11;;;;;;;4.75;2.80;;;;;;;12.47;70.59;96826.44;4899718;29;20056;-78
2023/05/13 09:46:39;;;;;;;5.13;3.35;;;;;;;12.47;70.65;96825.63;4910470;29;20052;-78
2023/05/13 09:49:06;;;;;;;3.70;2.83;;;;;;;12.50;71.06;96822.63;4921979;29;20073;-77
2023/05/13 09:51:34;;;;;;;6.15;2.83;;;;;;;12.48;70.44;96822.81;4916569;29;20431;-77
2023/05/13 09:54:07;;;;;;;2.85;2.65;;;;;;;12.48;70.98;96838.50;4909051;29;20053;-78
2023/05/13 09:56:35;;;;;;;3.92;3.15;;;;;;;12.48;70.64;96832.47;4900175;29;20438;-77
2023/05/13 09:59:03;;;;;;;2.90;2.67;;;;;;;12.48;70.55;96829.84;4898866;29;20139;-78
2023/05/13 10:01:32;;;;;;;3.55;3.25;;;;;;;12.45;70.17;96827.63;4897429;29;20045;-77
2023/05/13 10:03:59;;;;;;;3.88;3.55;;;;;;;12.41;69.67;96829.00;4896905;29;20088;-75
2023/05/13 10:06:29;;;;;;;4.05;3.33;;;;;;;12.39;70.04;96838.84;4905805;29;20058;-78
2023/05/13 10:08:59;;;;;;;3.90;3.47;;;;;;;12.34;70.06;96832.34;4916463;29;20085;-78
2023/05/13 10:11:30;;;;;;;4.43;4.03;;;;;;;12.34;70.15;96839.41;4915467;29;20434;-78
2023/05/13 10:14:00;;;;;;;3.30;3.00;;;;;;;12.35;70.47;96839.22;4907305;29;20048;-78
2023/05/13 10:16:29;;;;;;;5.72;3.47;;;;;;;12.37;70.23;96841.63;4957154;23;20146;-80
2023/05/13 10:18:57;;;;;;;3.80;3.50;;;;;;;12.37;70.29;96841.63;4936224;29;20078;-80
2023/05/13 10:21:26;;;;;;;3.42;3.13;;;;;;;12.38;70.59;96837.22;4936405;29;20687;-81
2023/05/13 10:23:54;;;;;;;7.90;4.28;;;;;;;12.41;70.27;96842.06;4954836;29;20058;-80
2023/05/13 10:26:22;;;;;;;4.00;3.47;;;;;;;12.44;70.56;96844.31;4938292;29;20056;-81
2023/05/13 10:28:51;;;;;;;5.13;4.57;;;;;;;12.46;70.13;96837.09;4936214;29;20130;-80
2023/05/13 10:31:19;;;;;;;5.88;4.88;;;;;;;12.45;70.35;96838.91;4938136;29;20054;-80
2023/05/13 10:33:47;;;;;;;5.35;4.70;;;;;;;12.47;70.33;96838.72;4937498;29;20467;-81
2023/05/13 10:36:39;;;;;;;5.40;3.88;;;;;;;12.49;70.07;96831.50;4936195;29;20048;-80
2023/05/13 10:39:27;;;;;;;5.38;4.65;;;;;;;12.50;69.98;96835.72;4935224;29;20051;-82
2023/05/13 10:42:33;;;;;;;5.75;4.72;;;;;;;12.49;70.16;96834.91;4934854;29;20047;-83
2023/05/13 10:45:02;;;;;;;5.32;4.82;;;;;;;12.48;69.84;96842.94;4934779;29;20059;-83
2023/05/13 10:47:32;;;;;;;5.85;3.53;;;;;;;12.48;70.23;96835.88;4936034;29;20071;-83
2023/05/13 10:50:03;;;;;;;3.70;3.40;;;;;;;12.48;70.10;96840.31;4937143;29;20048;-81
2023/05/13 10:52:42;;;;;;;5.25;4.00;;;;;;;12.50;70.78;96840.94;4937758;29;20055;-82
2023/05/13 10:55:17;;;;;;;4.15;3.75;;;;;;;12.53;70.85;96837.97;4936081;29;20062;-80
2023/05/13 10:58:09;;;;;;;3.78;3.47;;;;;;;12.55;71.07;96843.78;4937717;29;20056;-79
2023/05/13 11:00:39;;;;;;;4.22;3.83;;;;;;;12.58;70.61;96840.81;4937573;29;20139;-80
2023/05/13 11:03:16;;;;;;;4.05;3.70;;;;;;;12.62;70.70;96841.28;4937660;29;20047;-79
2023/05/13 11:05:45;;;;;;;4.30;3.63;;;;;;;12.64;70.38;96847.94;4937319;29;20405;-79
2023/05/13 11:08:38;;;;;;;6.50;4.00;;;;;;;12.69;69.81;96832.47;4939719;29;20052;-82
2023/05/13 11:11:23;;;;;;;;;;;;;;;12.75;70.25;96834.31;4927057;29;20052;-81
2023/05/13 11:17:06;;;;;;;5.78;3.22;;;;;;;12.80;69.60;96836.38;4936118;29;20151;-82
2023/05/13 11:19:36;;;;;;;3.70;3.40;;;;;;;12.81;69.47;96834.56;4921950;29;20054;-82
2023/05/13 11:22:08;;;;;;;4.38;3.60;;;;;;;12.80;69.57;96833.75;4946438;29;20050;-83
2023/05/13 11:24:36;;;;;;;3.85;3.55;;;;;;;12.81;69.19;96831.94;4963110;29;20127;-78
2023/05/13 11:27:13;;;;;;;5.32;3.60;;;;;;;12.81;69.10;96837.19;4960215;29;20127;-79
2023/05/13 11:29:48;;;;;;;4.63;3.58;;;;;;;12.82;68.96;96828.34;4951232;29;20431;-80
2023/05/13 11:32:54;;;;;;;4.00;3.45;;;;;;;12.85;69.96;96838.41;4949592;29;20075;-80
2023/05/13 11:35:23;;;;;;;4.47;3.53;;;;;;;12.87;69.25;96831.19;4957581;29;20056;-81
2023/05/13 11:37:51;;;;;;;3.55;3.25;;;;;;;12.90;69.07;96830.78;4941326;29;20055;-81
2023/05/13 11:40:22;;;;;;;3.67;3.38;;;;;;;12.93;68.38;96830.44;4938146;29;20052;-82
2023/05/13 11:42:50;;;;;;;3.35;3.05;;;;;;;12.93;68.54;96827.81;4937071;29;20055;-82
2023/05/13 11:45:19;;;;;;;5.07;4.28;;;;;;;12.94;68.10;96829.41;4936324;29;20055;-82
2023/05/13 11:47:48;;;;;;;4.47;3.50;;;;;;;12.95;68.08;96833.66;4937127;29;20079;-82